Time;durP1;ratioP1;P1;durP2;ratioP2;P2;SDS_P1;SDS_P2;PMS_P1;PMS_P2;Temp;Humidity;BMP_temperature;BMP_pressure;BME280_temperature;BME280_humidity;BME280_pressure;Samples;Min_cycle;Max_cycle;Signal;HPM_P1;HPM_P2
2021/06/13 00:01:55;;;;;;;;;;;;;;;20.35;77.53;99454.59;4311699;33;33926;-89
2021/06/13 00:04:28;;;;;;;;;;;;;;;19.86;78.21;99458.97;4303399;33;34161;-89
2021/06/13 00:07:00;;;;;;;;;;;;;;;20.13;77.92;99471.06;4290643;33;33483;-89
2021/06/13 00:09:33;;;;;;;;;;;;;;;20.10;77.86;99486.12;4302179;33;34469;-93
2021/06/13 00:12:07;;;;;;;;;;;;;;;20.03;77.72;99486.34;4287750;33;33743;-89
2021/06/13 00:14:41;;;;;;;;;;;;;;;20.39;76.35;99484.00;4286192;33;33731;-93
2021/06/13 00:17:16;;;;;;;;;;;;;;;20.54;76.09;99491.56;4300910;33;32675;-94
2021/06/13 00:19:52;;;;;;;;;;;;;;;20.62;75.19;99493.81;4278120;33;34305;-95
2021/06/13 00:22:24;;;;;;;;;;;;;;;20.64;75.00;99496.31;4276251;33;34705;-93
2021/06/13 00:25:04;;;;;;;;;;;;;;;20.64;75.54;99491.66;4270520;33;35744;-93
2021/06/13 00:27:37;;;;;;;;;;;;;;;20.51;75.38;99494.81;4283796;33;33361;-93
2021/06/13 00:30:11;;;;;;;;;;;;;;;20.55;75.84;99504.16;4282911;33;34630;-93
2021/06/13 00:32:43;;;;;;;;;;;;;;;20.72;75.10;99497.78;4283853;33;33942;-93
2021/06/13 00:35:16;;;;;;;;;;;;;;;20.55;76.11;99501.44;4282510;33;34042;-94
2021/06/13 00:37:49;;;;;;;;;;;;;;;20.73;74.82;99494.75;4284046;33;32860;-93
2021/06/13 00:40:23;;;;;;;;;;;;;;;20.64;75.31;99497.16;4269073;33;34893;-93
2021/06/13 00:42:58;;;;;;;;;;;;;;;20.61;75.11;99502.31;4271450;33;33980;-94
2021/06/13 00:45:36;;;;;;;;;;;;;;;20.48;75.41;99508.22;4262208;33;32753;-90
2021/06/13 00:48:10;;;;;;;;;;;;;;;20.61;74.89;99508.66;4272989;33;33116;-94
2021/06/13 00:51:06;;;;;;;;;;;;;;;20.48;75.12;99516.44;4033886;33;35704;-90
2021/06/13 00:53:39;;;;;;;;;;;;;;;20.43;75.20;99514.47;4272873;33;34153;-89
2021/06/13 00:56:12;;;;;;;;;;;;;;;20.52;74.94;99514.84;4275521;33;35014;-93
2021/06/13 00:59:21;;;;;;;;;;;;;;;20.28;74.88;99526.13;4321029;27;35728;-93
2021/06/13 01:01:54;;;;;;;;;;;;;;;20.41;75.04;99528.47;4311505;33;33898;-94
2021/06/13 01:04:27;;;;;;;;;;;;;;;20.31;74.97;99530.28;4315618;33;33922;-94
2021/06/13 01:07:09;;;;;;;;;;;;;;;20.39;74.94;99527.91;4303479;33;34417;-94
2021/06/13 01:10:28;;;;;;;;;;;;;;;20.40;74.08;99515.00;4318778;33;33245;-94
2021/06/13 01:13:10;;;;;;;;;;;;;;;20.24;74.82;99503.88;4297670;33;34331;-93
2021/06/13 01:15:46;;;;;;;;;;;;;;;20.20;74.86;99512.87;4317950;33;33973;-89
2021/06/13 01:18:23;;;;;;;;;;;;;;;20.19;74.85;99506.53;4329773;33;33917;-94
2021/06/13 01:20:59;;;;;;;;;;;;;;;20.08;74.91;99499.28;4299824;33;33768;-94
2021/06/13 01:23:51;;;;;;;;;;;;;;;20.29;73.95;99505.84;4303195;33;33953;-89
2021/06/13 01:26:34;;;;;;;;;;;;;;;20.17;73.94;99503.22;4314824;33;34044;-93
2021/06/13 01:29:16;;;;;;;;;;;;;;;20.29;73.67;99500.34;4304949;33;33949;-94
2021/06/13 01:31:55;;;;;;;;;;;;;;;20.10;73.08;99491.63;4290888;33;32365;-94
2021/06/13 01:34:32;;;;;;;;;;;;;;;20.10;72.74;99494.34;4303806;33;34013;-93
2021/06/13 01:37:06;;;;;;;;;;;;;;;20.28;72.15;99505.00;4303507;33;34908;-90
2021/06/13 01:39:39;;;;;;;;;;;;;;;20.36;71.11;99502.88;4304442;33;34689;-90
2021/06/13 01:42:12;;;;;;;;;;;;;;;19.93;71.66;99514.44;4328910;33;32694;-90
2021/06/13 01:44:46;;;;;;;;;;;;;;;19.86;71.80;99522.03;4318269;33;34010;-90
2021/06/13 01:47:19;;;;;;;;;;;;;;;20.01;70.84;99528.81;4329586;33;34081;-94
2021/06/13 01:49:53;;;;;;;;;;;;;;;19.65;71.69;99528.31;4309665;33;34159;-89
2021/06/13 01:52:27;;;;;;;;;;;;;;;19.56;72.07;99531.47;4314932;33;33472;-93
2021/06/13 01:55:00;;;;;;;;;;;;;;;19.36;72.15;99531.19;4291091;33;35305;-94
2021/06/13 01:57:34;;;;;;;;;;;;;;;19.18;70.87;99535.81;4302834;33;34986;-94
2021/06/13 02:00:12;;;;;;;;;;;;;;;18.76;72.27;99535.34;4302959;33;34227;-90
2021/06/13 02:02:59;;;;;;;;;;;;;;;18.71;71.36;99544.28;4304875;33;34655;-90
2021/06/13 02:05:33;;;;;;;;;;;;;;;18.68;72.13;99544.78;4304494;33;34211;-94
2021/06/13 02:08:07;;;;;;;;;;;;;;;18.29;72.00;99545.44;4318024;33;34928;-89
2021/06/13 02:10:43;;;;;;;;;;;;;;;18.22;71.54;99542.00;4311682;33;34001;-89
2021/06/13 02:13:17;;;;;;;;;;;;;;;18.11;70.74;99542.84;4313034;33;33706;-89
2021/06/13 02:15:52;;;;;;;;;;;;;;;18.12;69.85;99550.00;4290367;33;34624;-94
2021/06/13 02:18:38;;;;;;;;;;;;;;;17.80;70.46;99556.69;4292592;33;33717;-89
2021/06/13 02:21:11;;;;;;;;;;;;;;;18.01;70.75;99562.62;4321779;33;33402;-91
2021/06/13 02:23:44;;;;;;;;;;;;;;;17.66;70.35;99566.19;4329848;33;32791;-89
2021/06/13 02:26:17;;;;;;;;;;;;;;;17.85;70.40;99582.47;4329372;33;35012;-89
2021/06/13 02:28:51;;;;;;;;;;;;;;;17.68;69.71;99583.19;4321514;33;33672;-94
2021/06/13 02:31:26;;;;;;;;;;;;;;;17.66;70.49;99582.59;4317869;33;34685;-92
2021/06/13 02:33:59;;;;;;;;;;;;;;;17.50;70.84;99586.03;4305168;33;33607;-89
2021/06/13 02:36:32;;;;;;;;;;;;;;;17.48;70.29;99599.91;4317647;33;33932;-95
2021/06/13 02:39:06;;;;;;;;;;;;;;;17.46;69.18;99589.22;4304457;33;34069;-93
2021/06/13 02:41:39;;;;;;;;;;;;;;;17.55;68.48;99594.34;4291602;33;34801;-94
2021/06/13 02:44:24;;;;;;;;;;;;;;;17.56;69.01;99590.53;4279081;33;33002;-88
2021/06/13 02:46:57;;;;;;;;;;;;;;;17.19;69.49;99588.03;4282187;33;33693;-88
2021/06/13 02:49:30;;;;;;;;;;;;;;;17.12;70.09;99593.56;4260386;33;34071;-89
2021/06/13 02:52:08;;;;;;;;;;;;;;;17.29;68.99;99607.41;4271636;33;34067;-93
2021/06/13 02:54:46;;;;;;;;;;;;;;;17.17;68.79;99598.34;4259476;33;33007;-89
2021/06/13 02:57:25;;;;;;;;;;;;;;;16.73;69.98;99604.81;4269946;33;34314;-93
2021/06/13 03:00:00;;;;;;;;;;;;;;;16.91;69.52;99609.41;4260000;33;34080;-89
2021/06/13 03:02:38;;;;;;;;;;;;;;;16.80;69.75;99601.19;4260019;33;34034;-93
2021/06/13 03:05:12;;;;;;;;;;;;;;;16.88;69.48;99612.59;4259306;33;33523;-89
2021/06/13 03:07:45;;;;;;;;;;;;;;;16.75;68.36;99624.53;4261232;33;34715;-89
2021/06/13 03:10:19;;;;;;;;;;;;;;;16.69;69.07;99624.59;4259275;33;34531;-89
2021/06/13 03:12:54;;;;;;;;;;;;;;;16.71;69.94;99631.50;4260962;33;34022;-89
2021/06/13 03:15:27;;;;;;;;;;;;;;;16.66;69.62;99630.53;4271228;33;33358;-89
2021/06/13 03:17:59;;;;;;;;;;;;;;;16.33;70.81;99638.09;4269794;33;33649;-92
2021/06/13 03:20:34;;;;;;;;;;;;;;;16.45;69.47;99646.31;4270538;33;34943;-93
2021/06/13 03:23:08;;;;;;;;;;;;;;;16.47;69.38;99636.03;4249731;33;34514;-93
2021/06/13 03:25:42;;;;;;;;;;;;;;;16.54;70.06;99655.00;4271666;33;33529;-93
2021/06/13 03:28:39;;;;;;;;;;;;;;;16.41;69.59;99656.84;4291682;33;34234;-89
2021/06/13 03:31:13;;;;;;;;;;;;;;;16.56;70.14;99663.81;4299401;33;33692;-92
2021/06/13 03:33:46;;;;;;;;;;;;;;;16.76;69.34;99667.09;4287383;33;34889;-88
2021/06/13 03:36:19;;;;;;;;;;;;;;;16.77;69.23;99676.97;4286521;33;34323;-93
2021/06/13 03:38:52;;;;;;;;;;;;;;;16.96;68.40;99677.00;4286607;33;34740;-89
2021/06/13 03:41:25;;;;;;;;;;;;;;;16.90;67.88;99676.00;4288912;33;33945;-89
2021/06/13 03:43:58;;;;;;;;;;;;;;;16.78;68.98;99683.25;4289618;33;33995;-89
2021/06/13 03:46:31;;;;;;;;;;;;;;;16.90;67.83;99681.47;4300023;33;32703;-90
2021/06/13 03:49:05;;;;;;;;;;;;;;;16.82;68.27;99680.91;4289196;33;33948;-89
2021/06/13 03:51:38;;;;;;;;;;;;;;;16.97;68.13;99684.09;4288251;33;33739;-94
2021/06/13 03:54:11;;;;;;;;;;;;;;;16.57;68.91;99696.34;4285782;33;34223;-89
2021/06/13 03:56:44;;;;;;;;;;;;;;;16.74;68.37;99695.72;4299770;33;33093;-89
2021/06/13 03:59:18;;;;;;;;;;;;;;;16.93;67.83;99696.53;4299633;33;33872;-93
2021/06/13 04:01:55;;;;;;;;;;;;;;;16.89;67.20;99695.34;4287514;33;33907;-96
2021/06/13 04:04:33;;;;;;;;;;;;;;;16.88;67.98;99693.66;4299299;33;34031;-96
2021/06/13 04:07:06;;;;;;;;;;;;;;;17.03;67.56;99704.19;4299591;33;32900;-91
2021/06/13 04:09:39;;;;;;;;;;;;;;;16.94;67.36;99715.41;4287510;33;33920;-90
2021/06/13 04:12:16;;;;;;;;;;;;;;;17.12;66.46;99721.91;4287429;33;34819;-92
2021/06/13 04:14:49;;;;;;;;;;;;;;;17.17;66.11;99718.47;4287541;33;34582;-90
2021/06/13 04:17:23;;;;;;;;;;;;;;;17.03;67.36;99723.28;4288758;33;33223;-92
2021/06/13 04:20:02;;;;;;;;;;;;;;;17.05;67.24;99704.78;4286613;33;33040;-89
2021/06/13 04:22:36;;;;;;;;;;;;;;;17.17;67.00;99718.47;4287702;33;33709;-90
2021/06/13 04:25:12;;;;;;;;;;;;;;;17.25;66.32;99720.91;4287910;33;33350;-94
2021/06/13 04:27:48;;;;;;;;;;;;;;;17.15;67.02;99721.44;4289890;33;33619;-96
2021/06/13 04:30:23;;;;;;;;;;;;;;;17.12;67.13;99721.91;4301849;33;33154;-91
2021/06/13 04:33:00;;;;;;;;;;;;;;;17.28;66.56;99729.44;4303857;33;34139;-91
2021/06/13 04:35:34;;;;;;;;;;;;;;;17.08;66.65;99737.94;4303081;33;34440;-95
2021/06/13 04:38:09;;;;;;;;;;;;;;;17.09;67.05;99742.31;4279098;33;33530;-96
2021/06/13 04:40:42;;;;;;;;;;;;;;;17.22;67.07;99748.69;4311560;33;33853;-90
2021/06/13 04:43:15;;;;;;;;;;;;;;;17.12;66.61;99752.78;4314535;33;35852;-91
2021/06/13 04:45:48;;;;;;;;;;;;;;;17.37;66.72;99757.28;4313739;33;33630;-96
2021/06/13 04:48:21;;;;;;;;;;;;;;;17.44;66.19;99757.16;4301740;33;33546;-93
2021/06/13 04:50:55;;;;;;;;;;;;;;;17.50;65.74;99749.94;4304174;33;34571;-94
2021/06/13 04:54:00;;;;;;;;;;;;;;;17.36;65.83;99743.84;4301699;33;34501;-96
2021/06/13 04:56:46;;;;;;;;;;;;;;;17.69;65.60;99765.22;4314459;33;33514;-94
2021/06/13 04:59:19;;;;;;;;;;;;;;;17.67;65.04;99759.16;4296917;33;32506;-90
2021/06/13 05:01:52;;;;;;;;;;;;;;;17.45;66.07;99773.34;4296605;33;33673;-90
2021/06/13 05:04:27;;;;;;;;;;;;;;;17.57;65.90;99761.62;4302083;33;34257;-95
2021/06/13 05:07:03;;;;;;;;;;;;;;;17.66;64.29;99776.59;4285031;33;34803;-87
2021/06/13 05:09:36;;;;;;;;;;;;;;;17.52;63.83;99775.16;4267133;33;32834;-88
2021/06/13 05:12:09;;;;;;;;;;;;;;;17.42;66.50;99772.97;4290632;33;34434;-89
2021/06/13 05:14:41;;;;;;;;;;;;;;;17.69;65.68;99775.31;4270349;33;34737;-88
2021/06/13 05:17:14;;;;;;;;;;;;;;;17.69;66.03;99773.41;4270477;33;34810;-88
2021/06/13 05:19:46;;;;;;;;;;;;;;;17.97;65.24;99780.16;4283838;33;34252;-88
2021/06/13 05:22:19;;;;;;;;;;;;;;;18.06;65.72;99789.69;4286671;33;33589;-94
2021/06/13 05:24:52;;;;;;;;;;;;;;;18.00;64.98;99790.63;4308845;33;33768;-87
2021/06/13 05:27:25;;;;;;;;;;;;;;;18.00;65.24;99793.38;4306533;33;33971;-95
2021/06/13 05:29:57;;;;;;;;;;;;;;;18.07;64.12;99805.03;4281879;33;34048;-94
2021/06/13 05:32:31;;;;;;;;;;;;;;;18.36;63.21;99813.38;4281869;33;35467;-93
2021/06/13 05:35:07;;;;;;;;;;;;;;;18.15;62.62;99810.16;4279514;33;34290;-88
2021/06/13 05:37:40;;;;;;;;;;;;;;;18.38;62.32;99819.44;4281088;33;33711;-87
2021/06/13 05:40:13;;;;;;;;;;;;;;;18.51;62.12;99815.66;4307059;33;33108;-87
2021/06/13 05:42:48;;;;;;;;;;;;;;;18.53;63.09;99819.81;4308025;33;34112;-88
2021/06/13 05:45:23;;;;;;;;;;;;;;;18.60;62.03;99824.34;4285910;33;33740;-92
2021/06/13 05:47:58;;;;;;;;;;;;;;;18.84;61.82;99823.25;4301525;33;34543;-87
2021/06/13 05:50:30;;;;;;;;;;;;;;;19.25;61.07;99831.53;4306583;33;32932;-92
2021/06/13 05:53:03;;;;;;;;;;;;;;;19.08;62.13;99823.22;4294618;33;34850;-86
2021/06/13 05:55:36;;;;;;;;;;;;;;;19.34;59.79;99824.59;4294147;33;34078;-86
2021/06/13 05:58:09;;;;;;;;;;;;;;;19.41;57.24;99827.19;4275378;33;34001;-87
2021/06/13 06:00:41;;;;;;;;;;;;;;;18.86;58.35;99834.84;4286747;33;33370;-91
2021/06/13 06:03:15;;;;;;;;;;;;;;;18.89;58.57;99838.97;4302654;33;33588;-94
2021/06/13 06:05:56;;;;;;;;;;;;;;;19.12;59.96;99842.78;4282989;33;34671;-92
2021/06/13 06:08:30;;;;;;;;;;;;;;;18.94;60.01;99836.38;4285836;33;35182;-88
2021/06/13 06:11:03;;;;;;;;;;;;;;;18.94;59.46;99841.84;4290876;33;34286;-90
2021/06/13 06:13:39;;;;;;;;;;;;;;;19.02;56.61;99827.75;4286460;33;33553;-88
2021/06/13 06:16:12;;;;;;;;;;;;;;;19.16;58.35;99844.78;4305082;33;34496;-88
2021/06/13 06:18:46;;;;;;;;;;;;;;;19.05;57.88;99831.94;4286272;33;34172;-96
2021/06/13 06:21:21;;;;;;;;;;;;;;;19.04;57.52;99841.22;4307892;33;32989;-86
2021/06/13 06:24:16;;;;;;;;;;;;;;;19.34;56.84;99831.97;4321631;33;34780;-87
2021/06/13 06:26:55;;;;;;;;;;;;;;;19.58;58.53;99828.09;4327476;33;34547;-96
2021/06/13 06:29:38;;;;;;;;;;;;;;;19.45;55.79;99824.81;4327952;33;34378;-95
2021/06/13 06:32:10;;;;;;;;;;;;;;;19.51;56.01;99835.63;4314338;33;33803;-93
2021/06/13 06:34:50;;;;;;;;;;;;;;;19.55;54.77;99842.28;4309373;33;33642;-95
2021/06/13 06:37:23;;;;;;;;;;;;;;;19.39;53.00;99854.00;4302931;33;34653;-93
2021/06/13 06:39:57;;;;;;;;;;;;;;;19.30;54.92;99850.00;4327039;33;34194;-92
2021/06/13 06:42:32;;;;;;;;;;;;;;;19.40;53.15;99844.69;4316302;33;31665;-94
2021/06/13 06:45:06;;;;;;;;;;;;;;;19.55;54.85;99845.03;4318244;33;33939;-94
2021/06/13 06:47:39;;;;;;;;;;;;;;;19.44;52.51;99854.09;4307200;33;33029;-89
2021/06/13 06:50:12;;;;;;;;;;;;;;;19.59;54.48;99848.09;4293265;33;34427;-95
2021/06/13 06:52:46;;;;;;;;;;;;;;;19.71;53.04;99850.78;4306078;33;33943;-95
2021/06/13 06:55:27;;;;;;;;;;;;;;;19.75;53.84;99838.25;4306780;33;33802;-96
2021/06/13 06:58:00;;;;;;;;;;;;;;;20.00;52.92;99854.38;4286538;33;33731;-90
2021/06/13 07:00:33;;;;;;;;;;;;;;;20.14;50.89;99849.41;4304312;33;34805;-94
2021/06/13 07:03:11;;;;;;;;;;;;;;;20.11;51.52;99861.69;4291881;33;32640;-91
2021/06/13 07:05:51;;;;;;;;;;;;;;;20.02;50.19;99856.87;4294303;33;33988;-96
2021/06/13 07:08:41;;;;;;;;;;;;;;;20.45;51.97;99858.16;4309566;33;32628;-92
2021/06/13 07:11:42;;;;;;;;;;;;;;;20.42;51.11;99862.22;4340287;32;33055;-92
2021/06/13 07:15:03;;;;;;;;;;;;;;;20.81;48.70;99862.31;4274582;33;34143;-95
2021/06/13 07:17:42;;;;;;;;;;;;;;;20.92;48.55;99868.78;4304422;33;34194;-93
2021/06/13 07:20:44;;;;;;;;;;;;;;;21.08;48.45;99871.75;4281280;33;35975;-95
2021/06/13 07:23:30;;;;;;;;;;;;;;;21.17;49.56;99868.28;4296241;33;34212;-96
2021/06/13 07:26:10;;;;;;;;;;;;;;;21.28;49.20;99880.25;4313168;33;32848;-94
2021/06/13 07:29:26;;;;;;;;;;;;;;;21.46;47.54;99883.78;4274426;33;34489;-95
2021/06/13 07:32:09;;;;;;;;;;;;;;;21.81;46.44;99882.53;4270862;33;34073;-94
2021/06/13 07:35:22;;;;;;;;;;;;;;;21.82;46.65;99898.78;4309485;33;34257;-96
2021/06/13 07:38:01;;;;;;;;;;;;;;;22.04;46.77;99897.94;4329480;33;32966;-93
2021/06/13 07:40:39;;;;;;;;;;;;;;;21.86;45.05;99896.38;4320187;33;34943;-96
2021/06/13 07:43:17;;;;;;;;;;;;;;;21.80;44.59;99900.97;4331820;33;33796;-92
2021/06/13 07:46:03;;;;;;;;;;;;;;;21.72;45.77;99895.09;4322706;33;34056;-92
2021/06/13 07:48:37;;;;;;;;;;;;;;;21.84;46.54;99906.78;4338589;33;33111;-95
2021/06/13 07:51:11;;;;;;;;;;;;;;;21.51;43.10;99903.09;4312262;33;35394;-93
2021/06/13 07:53:53;;;;;;;;;;;;;;;21.47;45.82;99915.69;4322487;33;35747;-94
2021/06/13 07:56:25;;;;;;;;;;;;;;;21.47;45.40;99905.50;4340108;33;33853;-90
2021/06/13 07:59:02;;;;;;;;;;;;;;;21.89;45.97;99906.84;4318634;33;33295;-89
2021/06/13 08:01:36;;;;;;;;;;;;;;;21.27;45.25;99917.09;4325665;33;34155;-91
2021/06/13 08:04:10;;;;;;;;;;;;;;;21.61;43.45;99907.91;4328428;33;33703;-92
2021/06/13 08:06:49;;;;;;;;;;;;;;;21.67;43.02;99907.69;4329022;33;34138;-92
2021/06/13 08:09:26;;;;;;;;;;;;;;;22.29;43.92;99889.09;4329801;33;32952;-93
2021/06/13 08:11:59;;;;;;;;;;;;;;;22.47;42.54;99890.66;4328075;33;34233;-90
2021/06/13 08:14:38;;;;;;;;;;;;;;;22.48;42.33;99891.47;4316288;33;33409;-93
2021/06/13 08:17:13;;;;;;;;;;;;;;;22.20;41.43;99874.97;4316062;33;34372;-92
2021/06/13 08:19:51;;;;;;;;;;;;;;;22.04;43.51;99904.25;4327603;33;32842;-96
2021/06/13 08:22:26;;;;;;;;;;;;;;;21.71;44.91;99893.44;4328673;33;33449;-94
2021/06/13 08:25:00;;;;;;;;;;;;;;;21.95;43.73;99894.81;4316466;33;34829;-94
2021/06/13 08:27:33;;;;;;;;;;;;;;;21.88;43.20;99899.69;4318944;33;34711;-90
2021/06/13 08:30:08;;;;;;;;;;;;;;;22.01;43.57;99895.72;4333866;33;31972;-92
2021/06/13 08:32:41;;;;;;;;;;;;;;;22.01;43.36;99904.78;4318833;33;34564;-94
2021/06/13 08:35:15;;;;;;;;;;;;;;;22.10;41.71;99898.81;4332148;33;34129;-92
2021/06/13 08:38:12;;;;;;;;;;;;;;;21.58;42.99;99917.50;4289441;33;34099;-91
2021/06/13 08:40:47;;;;;;;;;;;;;;;21.25;42.29;99913.75;4332054;33;32975;-91
2021/06/13 08:43:20;;;;;;;;;;;;;;;21.73;42.69;99914.09;4325744;33;35297;-93
2021/06/13 08:45:55;;;;;;;;;;;;;;;21.93;43.09;99913.50;4313000;33;33611;-91
2021/06/13 08:48:28;;;;;;;;;;;;;;;22.41;43.53;99907.38;4315710;33;33989;-92
2021/06/13 08:51:02;;;;;;;;;;;;;;;22.78;42.26;99912.09;4328745;33;33074;-92
2021/06/13 08:53:35;;;;;;;;;;;;;;;23.11;40.46;99908.19;4306227;33;33326;-95
2021/06/13 08:56:10;;;;;;;;;;;;;;;22.81;39.83;99912.38;4325686;33;33721;-92
2021/06/13 08:58:43;;;;;;;;;;;;;;;22.92;39.70;99907.78;4330535;32;34553;-92
2021/06/13 09:01:18;;;;;;;;;;;;;;;22.05;41.01;99916.09;4328663;33;32662;-92
2021/06/13 09:03:51;;;;;;;;;;;;;;;22.12;41.12;99927.72;4325872;33;34549;-92
2021/06/13 09:06:27;;;;;;;;;;;;;;;22.15;40.17;99921.69;4317476;33;32980;-96
2021/06/13 09:08:59;;;;;;;;;;;;;;;22.11;40.48;99925.22;4329802;33;34549;-92
2021/06/13 09:11:33;;;;;;;;;;;;;;;22.05;41.94;99921.59;4314956;33;33735;-91
2021/06/13 09:14:12;;;;;;;;;;;;;;;21.82;42.80;99937.31;4319452;33;33925;-94
2021/06/13 09:16:47;;;;;;;;;;;;;;;21.46;44.01;99936.81;4334325;33;33684;-93
2021/06/13 09:19:20;;;;;;;;;;;;;;;22.17;42.56;99943.47;4317389;33;34534;-93
2021/06/13 09:21:53;;;;;;;;;;;;;;;22.61;41.96;99939.78;4319404;33;32738;-94
2021/06/13 09:24:26;;;;;;;;;;;;;;;22.70;41.50;99928.00;4322673;33;34037;-91
2021/06/13 09:27:01;;;;;;;;;;;;;;;23.12;40.88;99931.09;4327805;33;34028;-92
2021/06/13 09:29:50;;;;;;;;;;;;;;;23.18;40.49;99921.75;4309010;33;32974;-94
2021/06/13 09:32:56;;;;;;;;;;;;;;;22.75;39.75;99935.47;4316262;33;32367;-92
2021/06/13 09:35:30;;;;;;;;;;;;;;;22.99;39.82;99919.38;4324164;33;33291;-91
2021/06/13 09:38:16;;;;;;;;;;;;;;;23.12;39.30;99944.88;4313004;33;34571;-92
2021/06/13 09:41:00;;;;;;;;;;;;;;;22.79;39.42;99936.62;4328917;33;34445;-92
2021/06/13 09:43:46;;;;;;;;;;;;;;;22.80;40.24;99943.81;4324479;33;33932;-93
2021/06/13 09:46:54;;;;;;;;;;;;;;;22.45;39.38;99941.56;4310868;33;34294;-90
2021/06/13 09:49:27;;;;;;;;;;;;;;;22.59;38.95;99945.56;4283309;33;34951;-89
2021/06/13 09:52:02;;;;;;;;;;;;;;;22.67;39.55;99949.75;4284867;33;35644;-95
2021/06/13 09:54:36;;;;;;;;;;;;;;;22.59;37.58;99956.56;4297997;33;33290;-90
2021/06/13 09:57:09;;;;;;;;;;;;;;;22.60;39.00;99957.41;4285881;33;34020;-89
2021/06/13 09:59:43;;;;;;;;;;;;;;;22.89;39.80;99957.91;4297881;33;34496;-92
2021/06/13 10:02:18;;;;;;;;;;;;;;;23.52;37.50;99949.78;4295714;33;33854;-89
2021/06/13 10:04:51;;;;;;;;;;;;;;;23.85;38.49;99966.19;4293513;33;33515;-92
2021/06/13 10:07:26;;;;;;;;;;;;;;;24.46;37.07;99958.09;4284874;33;33842;-92
2021/06/13 10:10:14;;;;;;;;;;;;;;;24.46;36.34;99946.19;4281754;33;34263;-92
2021/06/13 10:12:53;;;;;;;;;;;;;;;24.85;34.87;99943.75;4301148;33;33572;-93
2021/06/13 10:15:37;;;;;;;;;;;;;;;25.08;36.79;99941.53;4299242;33;33184;-91
2021/06/13 10:18:10;;;;;;;;;;;;;;;25.19;36.74;99939.56;4287333;33;33840;-91
2021/06/13 10:20:46;;;;;;;;;;;;;;;25.76;34.64;99939.41;4300761;33;32735;-90
2021/06/13 10:23:19;;;;;;;;;;;;;;;26.25;35.21;99953.25;4274172;33;33193;-89
2021/06/13 10:25:52;;;;;;;;;;;;;;;25.87;31.79;99947.37;4288687;33;34032;-92
2021/06/13 10:28:26;;;;;;;;;;;;;;;25.63;33.75;99938.91;4298120;33;33714;-96
2021/06/13 10:31:13;;;;;;;;;;;;;;;25.57;34.44;99941.97;4303639;33;33947;-95
2021/06/13 10:33:48;;;;;;;;;;;;;;;25.12;33.58;99945.38;4290396;33;35369;-95
2021/06/13 10:36:53;;;;;;;;;;;;;;;25.33;38.16;99942.59;4279517;33;33213;-96
2021/06/13 10:39:41;;;;;;;;;;;;;;;25.59;37.59;99951.66;4277409;33;33471;-90
2021/06/13 10:42:14;;;;;;;;;;;;;;;25.78;35.20;99943.56;4283316;33;33804;-95
2021/06/13 10:44:52;;;;;;;;;;;;;;;25.46;35.78;99955.00;4270207;33;33209;-94
2021/06/13 10:48:22;;;;;;;;;;;;;;;26.00;34.95;99950.66;4298466;33;33053;-96
2021/06/13 10:51:34;;;;;;;;;;;;;;;26.07;36.45;99948.41;4255470;33;35249;-95
2021/06/13 10:54:29;;;;;;;;;;;;;;;25.34;34.46;99955.31;4259682;28;34046;-92
2021/06/13 10:57:53;;;;;;;;;;;;;;;25.36;34.27;99947.59;4302114;33;34357;-96
2021/06/13 11:00:30;;;;;;;;;;;;;;;24.67;38.30;99942.41;4310575;33;32829;-95
2021/06/13 11:03:26;;;;;;;;;;;;;;;24.79;34.49;99941.28;4388964;28;35578;-92
2021/06/13 11:06:06;;;;;;;;;;;;;;;24.98;35.91;99945.13;4273361;33;34921;-94
2021/06/13 11:08:59;;;;;;;;;;;;;;;25.21;34.72;99948.41;4289243;33;33541;-93
2021/06/13 11:11:58;;;;;;;;;;;;;;;24.84;35.06;99953.16;4261735;33;32860;-91
2021/06/13 11:14:44;;;;;;;;;;;;;;;24.93;35.70;99955.37;4244503;33;34226;-94
2021/06/13 11:17:41;;;;;;;;;;;;;;;24.91;37.33;99952.88;4256446;33;35275;-94
2021/06/13 11:23:42;;;;;;;;;;;;;;;24.57;36.45;99969.16;4330952;33;32269;-96
2021/06/13 11:27:12;;;;;;;;;;;;;;;23.81;36.87;99960.38;4295696;33;33500;-96
2021/06/13 11:30:18;;;;;;;;;;;;;;;23.98;36.60;99968.47;4264128;33;33603;-93
2021/06/13 11:33:03;;;;;;;;;;;;;;;24.61;35.99;99959.22;4259250;33;34583;-92
2021/06/13 11:36:05;;;;;;;;;;;;;;;24.41;35.35;99955.31;4250558;33;34436;-95
2021/06/13 11:38:53;;;;;;;;;;;;;;;25.15;36.15;99952.28;4237491;33;34152;-88
2021/06/13 11:41:28;;;;;;;;;;;;;;;25.92;34.39;99943.75;4249073;33;33875;-90
2021/06/13 11:44:05;;;;;;;;;;;;;;;26.70;35.02;99935.81;4264764;33;34091;-96
2021/06/13 11:46:41;;;;;;;;;;;;;;;27.14;31.12;99929.25;4247829;33;33706;-89
2021/06/13 11:49:16;;;;;;;;;;;;;;;28.02;31.78;99942.16;4271453;33;33496;-93
2021/06/13 11:51:52;;;;;;;;;;;;;;;27.50;31.45;99942.78;4258955;33;35263;-90
2021/06/13 11:54:34;;;;;;;;;;;;;;;27.52;31.25;99940.53;4269365;33;33821;-89
2021/06/13 11:57:12;;;;;;;;;;;;;;;27.74;31.69;99939.16;4271648;33;34554;-94
2021/06/13 11:59:51;;;;;;;;;;;;;;;27.13;32.28;99947.84;4260026;33;34136;-95
2021/06/13 12:02:25;;;;;;;;;;;;;;;25.72;34.47;99955.75;4268878;33;35021;-92
2021/06/13 12:05:05;;;;;;;;;;;;;;;27.11;32.67;99941.78;4262144;33;33702;-92
2021/06/13 12:07:39;;;;;;;;;;;;;;;27.71;29.66;99931.41;4269991;33;33234;-91
2021/06/13 12:10:17;;;;;;;;;;;;;;;28.14;30.22;99940.56;4259298;33;34658;-94
2021/06/13 12:13:03;;;;;;;;;;;;;;;28.17;29.70;99934.44;4259585;33;35103;-91
2021/06/13 12:15:47;;;;;;;;;;;;;;;26.99;29.66;99929.44;4272035;33;34466;-90
2021/06/13 12:18:19;;;;;;;;;;;;;;;26.48;31.35;99936.22;4261202;33;946882;-87
2021/06/13 12:20:56;;;;;;;;;;;;;;;25.37;32.44;99938.16;4273865;33;34304;-90
2021/06/13 12:23:32;;;;;;;;;;;;;;;25.66;33.14;99938.34;4265956;33;34107;-95
2021/06/13 12:28:59;;;;;;;;;;;;;;;25.79;32.48;99947.94;4284048;33;34003;-90
2021/06/13 12:31:32;;;;;;;;;;;;;;;25.71;33.63;99945.78;4259249;33;34436;-90
2021/06/13 12:34:05;;;;;;;;;;;;;;;26.06;34.99;99942.06;4268251;33;35471;-90
2021/06/13 12:36:46;;;;;;;;;;;;;;;27.18;30.71;99941.44;4281819;33;34622;-91
2021/06/13 12:39:26;;;;;;;;;;;;;;;27.14;32.13;99926.50;4282715;33;33855;-90
2021/06/13 12:42:09;;;;;;;;;;;;;;;27.61;28.97;99919.31;4260591;33;34442;-89
2021/06/13 12:44:41;;;;;;;;;;;;;;;26.27;31.76;99933.59;4285370;33;35143;-89
2021/06/13 12:47:17;;;;;;;;;;;;;;;25.74;32.68;99942.44;4261157;33;34326;-92
2021/06/13 12:49:57;;;;;;;;;;;;;;;25.38;31.31;99937.88;4282497;33;35920;-88
2021/06/13 12:52:30;;;;;;;;;;;;;;;26.68;32.07;99932.50;4283321;33;34216;-90
2021/06/13 12:55:12;;;;;;;;;;;;;;;28.02;33.18;99928.25;4258987;33;33029;-91
2021/06/13 12:57:47;;;;;;;;;;;;;;;28.38;28.69;99936.06;4275026;33;34625;-96
2021/06/13 13:00:20;;;;;;;;;;;;;;;28.07;29.72;99934.56;4276256;33;34218;-94
2021/06/13 13:03:06;;;;;;;;;;;;;;;28.13;30.27;99924.19;4283308;33;33953;-88
2021/06/13 13:05:39;;;;;;;;;;;;;;;27.25;31.23;99925.28;4265831;33;34512;-92
2021/06/13 13:08:20;;;;;;;;;;;;;;;28.19;29.83;99923.00;4264780;33;33724;-95
2021/06/13 13:10:57;;;;;;;;;;;;;;;27.72;30.76;99916.41;4263492;33;33582;-91
2021/06/13 13:13:42;;;;;;;;;;;;;;;27.84;29.61;99914.03;4282576;33;33619;-88
2021/06/13 13:16:21;;;;;;;;;;;;;;;27.85;30.50;99915.69;4289430;33;34006;-92
2021/06/13 13:18:55;;;;;;;;;;;;;;;27.45;31.31;99926.19;4273229;33;33867;-90
2021/06/13 13:21:35;;;;;;;;;;;;;;;26.97;30.32;99915.03;4250902;33;33493;-94
2021/06/13 13:24:27;;;;;;;;;;;;;;;27.37;30.36;99904.66;4273734;33;34003;-89
2021/06/13 13:27:04;;;;;;;;;;;;;;;27.86;29.00;99905.41;4259176;33;33334;-93
2021/06/13 13:29:52;;;;;;;;;;;;;;;27.85;31.73;99893.47;4281731;33;34019;-90
2021/06/13 13:32:27;;;;;;;;;;;;;;;28.49;29.66;99899.47;4275529;33;35073;-95
2021/06/13 13:35:01;;;;;;;;;;;;;;;27.52;29.13;99901.69;4253647;33;32693;-94
2021/06/13 13:37:54;;;;;;;;;;;;;;;27.85;27.70;99901.81;4261810;33;33640;-95
2021/06/13 13:40:56;;;;;;;;;;;;;;;27.80;31.03;99887.97;4267890;33;34380;-94
2021/06/13 13:43:38;;;;;;;;;;;;;;;28.02;28.25;99904.09;4273675;33;34240;-91
2021/06/13 13:46:28;;;;;;;;;;;;;;;27.86;27.51;99897.06;4284474;33;34489;-93
2021/06/13 13:49:10;;;;;;;;;;;;;;;27.79;28.53;99894.66;4284406;33;33769;-95
2021/06/13 13:51:54;;;;;;;;;;;;;;;27.76;27.75;99900.81;4282967;33;33799;-96
2021/06/13 13:54:55;;;;;;;;;;;;;;;27.90;29.02;99907.28;4270374;33;33153;-96